createdAt,value
2024-02-24T00:04:17.861Z,1.83
2024-02-24T00:09:21.540Z,8.43
2024-02-24T00:14:25.577Z,9.93
2024-02-24T00:19:29.302Z,7.70
2024-02-24T00:34:40.068Z,3.97
2024-02-24T00:44:47.515Z,2.67
2024-02-24T00:49:51.188Z,15.37
2024-02-24T00:54:55.056Z,12.67
2024-02-24T00:59:58.716Z,11.70
2024-02-24T01:05:03.567Z,8.00
2024-02-24T01:10:09.545Z,17.37
2024-02-24T01:15:13.294Z,5.40
2024-02-24T01:20:18.782Z,13.73
2024-02-24T01:25:22.947Z,2.73
2024-02-24T01:30:28.422Z,10.93
2024-02-24T01:36:15.172Z,8.13
2024-02-24T01:41:18.933Z,5.93
2024-02-24T01:46:22.838Z,8.90
2024-02-24T01:51:28.985Z,2.50
2024-02-24T01:56:34.658Z,7.13
2024-02-24T02:01:39.410Z,14.53
2024-02-24T02:06:43.873Z,7.90
2024-02-24T02:11:56.432Z,20.13
2024-02-24T02:17:08.330Z,2.63
2024-02-24T02:22:16.988Z,3.73
2024-02-24T02:27:20.949Z,9.40
2024-02-24T02:32:24.790Z,9.88
2024-02-24T02:37:28.575Z,11.23
2024-02-24T02:42:32.450Z,8.70
2024-02-24T02:52:42.782Z,2.23
2024-02-24T02:57:46.702Z,2.35
2024-02-24T03:02:52.237Z,7.93
2024-02-24T03:07:56.338Z,4.53
2024-02-24T03:13:00.140Z,6.30
2024-02-24T03:18:04.230Z,7.90
2024-02-24T03:23:08.889Z,11.23
2024-02-24T03:33:16.086Z,8.50
2024-02-24T03:38:19.909Z,2.70
2024-02-24T03:43:23.735Z,12.83
2024-02-24T03:48:27.591Z,18.37
2024-02-24T03:53:31.527Z,4.60
2024-02-24T03:58:35.440Z,15.00
2024-02-24T04:03:39.219Z,11.83
2024-02-24T04:08:43.219Z,21.57
2024-02-24T04:13:47.180Z,13.90
2024-02-24T04:18:51.028Z,31.73
2024-02-24T04:23:55.149Z,21.60
2024-02-24T04:28:59.045Z,16.20
2024-02-24T04:34:02.960Z,15.10
2024-02-24T04:39:06.860Z,27.80
2024-02-24T04:44:10.688Z,20.53
2024-02-24T04:49:14.425Z,31.43
2024-02-24T04:54:18.629Z,33.50
2024-02-24T04:59:22.734Z,27.70
2024-02-24T05:04:27.512Z,40.10
2024-02-24T05:09:31.403Z,26.97
2024-02-24T05:14:35.325Z,24.30
2024-02-24T05:19:39.159Z,34.80
2024-02-24T05:24:44.121Z,35.33
2024-02-24T05:29:48.999Z,53.73
2024-02-24T05:34:53.011Z,35.03
2024-02-24T05:39:57.133Z,30.23
2024-02-24T05:45:00.857Z,35.97
2024-02-24T05:50:05.004Z,32.40
2024-02-24T05:55:12.149Z,33.87
2024-02-24T06:00:16.560Z,34.80
2024-02-24T06:05:20.222Z,31.03
2024-02-24T06:10:23.956Z,32.53
2024-02-24T06:15:27.792Z,25.40
2024-02-24T06:20:33.818Z,25.77
2024-02-24T06:25:37.634Z,18.38
2024-02-24T06:30:41.391Z,26.90
2024-02-24T06:35:45.241Z,42.53
2024-02-24T06:40:49.111Z,27.97
2024-02-24T06:45:52.972Z,48.13
2024-02-24T06:50:56.995Z,36.63
2024-02-24T06:56:07.998Z,24.13
2024-02-24T07:01:11.986Z,33.90
2024-02-24T07:06:15.937Z,34.97
2024-02-24T07:11:19.696Z,47.67
2024-02-24T07:16:23.615Z,36.43
2024-02-24T07:21:27.600Z,39.77
2024-02-24T07:26:31.312Z,40.20
2024-02-24T07:31:35.098Z,28.53
2024-02-24T07:36:38.718Z,26.63
2024-02-24T07:41:43.547Z,31.87
2024-02-24T07:46:47.477Z,19.87
2024-02-24T07:51:52.658Z,20.57
2024-02-24T07:56:57.380Z,17.57
2024-02-24T08:02:01.339Z,18.47
2024-02-24T08:07:05.515Z,19.70
2024-02-24T08:12:09.635Z,15.33
2024-02-24T08:17:13.526Z,15.23
2024-02-24T08:22:17.726Z,20.65
2024-02-24T08:27:21.343Z,29.77
2024-02-24T08:32:25.609Z,23.23
2024-02-24T08:37:29.322Z,21.03
2024-02-24T08:42:33.110Z,25.25
2024-02-24T08:47:37.899Z,22.90
2024-02-24T08:52:46.804Z,24.90
2024-02-24T08:57:54.364Z,26.27
2024-02-24T09:02:58.649Z,23.30
2024-02-24T09:08:02.584Z,24.47
2024-02-24T09:13:06.535Z,26.00
2024-02-24T09:18:10.250Z,15.73
2024-02-24T09:23:14.207Z,20.58
2024-02-24T09:28:18.127Z,16.88
2024-02-24T09:33:22.047Z,27.50
2024-02-24T09:38:25.964Z,21.37
2024-02-24T09:43:30.048Z,19.25
2024-02-24T09:48:34.212Z,22.60
2024-02-24T09:53:40.909Z,17.75
2024-02-24T09:58:46.301Z,21.73
2024-02-24T10:03:51.606Z,22.97
2024-02-24T10:08:55.611Z,17.07
2024-02-24T10:13:59.372Z,23.88
2024-02-24T10:19:06.226Z,24.77
2024-02-24T10:24:10.126Z,18.15
2024-02-24T10:29:17.780Z,24.95
2024-02-24T10:34:22.596Z,16.73
2024-02-24T10:39:28.600Z,16.73
2024-02-24T10:44:34.958Z,19.27
2024-02-24T10:49:39.290Z,26.10
2024-02-24T10:54:44.871Z,19.57
2024-02-24T10:59:51.246Z,16.25
2024-02-24T11:04:55.262Z,18.23
2024-02-24T11:09:59.032Z,18.30
2024-02-24T11:15:03.114Z,12.77
2024-02-24T11:20:08.046Z,16.63
2024-02-24T11:25:19.528Z,16.27
2024-02-24T11:30:40.547Z,11.43
2024-02-24T11:35:44.405Z,11.03
2024-02-24T11:40:49.817Z,11.63
2024-02-24T11:45:55.482Z,19.70
2024-02-24T11:50:59.526Z,17.43
2024-02-24T11:56:04.912Z,14.40
2024-02-24T12:01:08.760Z,13.17
2024-02-24T12:06:13.901Z,12.10
2024-02-24T12:11:18.102Z,12.23
2024-02-24T12:16:23.719Z,22.27
2024-02-24T12:21:30.763Z,40.33
2024-02-24T12:26:34.750Z,22.27
2024-02-24T12:31:38.581Z,11.03
2024-02-24T12:36:42.290Z,15.57
2024-02-24T12:41:47.486Z,16.97
2024-02-24T12:46:51.266Z,29.77
2024-02-24T12:51:55.133Z,26.60
2024-02-24T12:56:59.737Z,21.30
2024-02-24T13:02:03.607Z,14.17
2024-02-24T13:07:07.644Z,20.30
2024-02-24T13:12:11.383Z,21.17
2024-02-24T13:17:16.762Z,15.27
2024-02-24T13:22:20.404Z,11.77
2024-02-24T13:27:24.390Z,13.53
2024-02-24T13:32:28.566Z,23.40
2024-02-24T13:37:32.239Z,18.93
2024-02-24T13:42:36.055Z,11.33
2024-02-24T13:47:39.885Z,12.90
2024-02-24T13:52:43.686Z,10.40
2024-02-24T13:57:47.505Z,12.00
2024-02-24T14:02:52.267Z,14.87
2024-02-24T14:08:40.055Z,9.83
2024-02-24T14:13:43.726Z,13.47
2024-02-24T14:18:48.693Z,12.43
2024-02-24T14:23:53.785Z,15.47
2024-02-24T14:29:01.269Z,19.07
2024-02-24T14:34:06.648Z,23.30
2024-02-24T14:39:12.208Z,27.03
2024-02-24T14:44:16.219Z,16.58
2024-02-24T14:49:19.886Z,8.87
2024-02-24T14:54:23.857Z,17.40
2024-02-24T14:59:27.735Z,11.07
2024-02-24T15:04:31.518Z,13.03
2024-02-24T15:09:35.727Z,16.77
2024-02-24T15:14:39.551Z,19.30
2024-02-24T15:19:47.120Z,22.63
2024-02-24T15:24:50.818Z,36.30
2024-02-24T15:29:54.748Z,26.53
2024-02-24T15:34:58.682Z,21.43
2024-02-24T15:40:09.326Z,20.47
2024-02-24T15:45:13.105Z,24.73
2024-02-24T15:50:17.122Z,30.57
2024-02-24T15:55:20.956Z,11.13
2024-02-24T16:00:24.971Z,26.43
2024-02-24T16:05:28.899Z,28.03
2024-02-24T16:10:32.616Z,23.00
2024-02-24T16:15:36.431Z,22.93
2024-02-24T16:20:42.044Z,26.67
2024-02-24T16:25:46.083Z,32.97
2024-02-24T16:30:49.825Z,24.70
2024-02-24T16:35:53.725Z,25.43
2024-02-24T16:40:57.630Z,20.67
2024-02-24T16:46:02.943Z,14.40
2024-02-24T16:51:06.828Z,24.83
2024-02-24T16:56:10.650Z,18.00
2024-02-24T17:01:14.795Z,26.23
2024-02-24T17:06:18.819Z,31.90
2024-02-24T17:11:22.857Z,22.87
2024-02-24T17:16:26.728Z,21.00
2024-02-24T17:21:31.868Z,16.50
2024-02-24T17:26:36.314Z,20.23
2024-02-24T17:31:39.988Z,21.53
2024-02-24T17:36:48.024Z,29.80
2024-02-24T17:41:51.798Z,32.63
2024-02-24T17:46:55.787Z,21.43
2024-02-24T17:51:59.836Z,22.37
2024-02-24T17:57:05.123Z,15.80
2024-02-24T18:02:08.867Z,31.80
2024-02-24T18:07:12.853Z,30.90
2024-02-24T18:12:16.819Z,20.17
2024-02-24T18:17:20.582Z,18.57
2024-02-24T18:22:24.444Z,31.43
2024-02-24T18:27:30.071Z,43.60
2024-02-24T18:32:34.126Z,30.30
2024-02-24T18:37:39.355Z,32.53
2024-02-24T18:42:43.716Z,24.70
2024-02-24T18:47:47.755Z,31.20
2024-02-24T18:52:52.015Z,36.43
2024-02-24T18:57:56.597Z,23.70
2024-02-24T19:03:00.478Z,27.07
2024-02-24T19:08:04.498Z,23.40
2024-02-24T19:13:08.366Z,26.70
2024-02-24T19:18:15.366Z,23.20
2024-02-24T19:23:19.446Z,32.47
2024-02-24T19:28:23.135Z,25.40
2024-02-24T19:33:28.123Z,29.57
2024-02-24T19:38:31.885Z,29.45
2024-02-24T19:43:35.764Z,30.93
2024-02-24T19:48:39.575Z,24.97
2024-02-24T19:53:43.524Z,18.00
2024-02-24T19:58:54.714Z,20.43
2024-02-24T20:04:00.722Z,16.73
2024-02-24T20:09:04.347Z,30.67
2024-02-24T20:14:08.928Z,23.13
2024-02-24T20:19:12.625Z,11.23
2024-02-24T20:24:16.295Z,17.67
2024-02-24T20:29:19.884Z,21.07
2024-02-24T20:34:23.662Z,26.93
2024-02-24T20:39:28.242Z,18.70
2024-02-24T20:44:31.766Z,22.77
2024-02-24T20:49:35.517Z,17.33
2024-02-24T20:54:40.504Z,23.77
2024-02-24T20:59:45.058Z,20.48
2024-02-24T21:04:48.791Z,16.63
2024-02-24T21:10:52.995Z,20.57
2024-02-24T21:15:56.741Z,28.63
2024-02-24T21:21:00.378Z,22.67
2024-02-24T21:26:10.051Z,30.17
2024-02-24T21:31:13.509Z,29.77
2024-02-24T21:36:18.198Z,18.63
2024-02-24T21:41:22.060Z,30.37
2024-02-24T21:46:26.636Z,18.40
2024-02-24T21:51:30.849Z,12.67
2024-02-24T21:56:36.006Z,29.60
2024-02-24T22:01:39.821Z,23.45
2024-02-24T22:06:44.612Z,23.83
2024-02-24T22:11:48.878Z,17.55
2024-02-24T22:16:53.203Z,17.50
2024-02-24T22:21:57.204Z,32.97
2024-02-24T22:27:01.163Z,16.47
2024-02-24T22:32:05.210Z,15.40
2024-02-24T22:37:08.881Z,16.70
2024-02-24T22:42:12.483Z,27.37
2024-02-24T22:47:16.255Z,19.50
2024-02-24T22:52:19.884Z,20.80
2024-02-24T22:57:23.989Z,13.77
2024-02-24T23:02:28.471Z,25.87
2024-02-24T23:07:32.307Z,16.17
2024-02-24T23:12:36.837Z,11.73
2024-02-24T23:17:41.827Z,18.53
2024-02-24T23:22:45.939Z,30.75
2024-02-24T23:27:49.815Z,13.10
2024-02-24T23:32:53.503Z,19.70
2024-02-24T23:37:59.368Z,13.33
2024-02-24T23:43:03.285Z,21.10
2024-02-24T23:48:07.630Z,18.60
2024-02-24T23:53:11.360Z,17.97
2024-02-24T23:58:15.374Z,19.13
